Gas Grouper — V7TZ2 — position and weather

sailwx.info

Track history (hours):
 
Tides and Currents Weather Stations Pressure Air Temp Water Temp Dewpoint Dewpoint Depression Visibility Wind Speed Wind Dir Waves Ship Positions

Gas Grouper

Last reported at 2015-May-26 18:11 UTC. Time now 2015-May-27 05:49 UTC.
Position N 36°15' E 023°24'.

Length 174 m; draft 10.6 m.

Type: Tanker. MMSI: 538003910.

Date/timePositionNaut miles runAvg speedWind from/ knotsBaromVisibWave heightAir tempDewpointWater temp
2015-May-26 18:11N 36°15' E 023°24'914.2
2015-May-26 17:31N 36°22' E 023°32'1414.0
2015-May-26 16:33N 36°31' E 023°44'4213.4
2015-May-26 13:27N 37°08' E 024°09'309 7.1
2015-May-24 18:08N 40°53' E 028°40'1013.4
2015-May-24 17:22N 40°55' E 028°53'8 9.7
2015-May-24 16:33N 41°01' E 028°60'2110.3
2015-May-24 14:34N 41°20' E 029°10'1 0.6
2015-May-24 13:32N 41°20' E 029°11'3 0.4
2015-May-24 06:05N 41°23' E 029°08'3 0.3
2015-May-23 20:25N 41°25' E 029°05'0 0.3
2015-May-23 19:34N 41°25' E 029°05'0 0.4
2015-May-23 18:32N 41°25' E 029°05'0 0.2
2015-May-23 17:22N 41°25' E 029°05'6 2.0
2015-May-23 14:23N 41°21' E 029°11'1 0.7
2015-May-23 13:32N 41°22' E 029°10'1 0.7
2015-May-23 11:32N 41°22' E 029°09'1 0.8
2015-May-23 10:34N 41°23' E 029°08'1 0.7
2015-May-23 09:31N 41°23' E 029°07'32011.0
2015-May-22 04:27N 46°33' E 030°58'1 0.0
2015-May-20 06:12N 46°32' E 030°59'0 0.0
2015-May-20 04:33N 46°32' E 030°59'0 0.0
2015-May-20 03:33N 46°32' E 030°59'0 0.0
2015-May-20 02:33N 46°32' E 030°59'0 0.0
2015-May-20 01:30N 46°32' E 030°59'0 0.0
2015-May-20 00:33N 46°32' E 030°59'0 0.0
2015-May-19 23:33N 46°32' E 030°59'0 0.0
2015-May-19 22:24N 46°32' E 030°59'0 0.0
2015-May-19 21:30N 46°32' E 030°59'0 0.0
2015-May-19 20:30N 46°32' E 030°59'0 0.0
2015-May-19 19:21N 46°32' E 030°59'0 0.0
2015-May-19 18:27N 46°32' E 030°59'0 0.0
2015-May-19 17:33N 46°32' E 030°59'0 0.0
2015-May-19 16:15N 46°32' E 030°59'2 2.8
2015-May-19 15:33N 46°30' E 030°57'1614.4
2015-May-19 14:26N 46°14' E 031°01'1314.8
2015-May-19 13:32N 46°02' E 031°09'1616.2
2015-May-19 12:33N 45°48' E 031°01'25715.9
2015-May-18 20:25N 41°41' E 029°21'2016.2
2015-May-18 19:11N 41°22' E 029°14'  
Track history (hours):
 
Tides and Currents Weather Stations Pressure Air Temp Water Temp Dewpoint Dewpoint Depression Visibility Wind Speed Wind Dir Waves Ship Positions

Gas Grouper

Last reported at 2015-May-26 18:11 UTC. Time now 2015-May-27 05:49 UTC.
Position N 36°15' E 023°24'.

Length 174 m; draft 10.6 m.

Type: Tanker. MMSI: 538003910.

Date/timePositionNaut miles runAvg speedWind from/ knotsBaromVisibWave heightAir tempDewpointWater temp
2015-May-26 18:11N 36°15' E 023°24'914.2
2015-May-26 17:31N 36°22' E 023°32'1414.0
2015-May-26 16:33N 36°31' E 023°44'4213.4
2015-May-26 13:27N 37°08' E 024°09'309 7.1
2015-May-24 18:08N 40°53' E 028°40'1013.4
2015-May-24 17:22N 40°55' E 028°53'8 9.7
2015-May-24 16:33N 41°01' E 028°60'2110.3
2015-May-24 14:34N 41°20' E 029°10'1 0.6
2015-May-24 13:32N 41°20' E 029°11'3 0.4
2015-May-24 06:05N 41°23' E 029°08'3 0.3
2015-May-23 20:25N 41°25' E 029°05'0 0.3
2015-May-23 19:34N 41°25' E 029°05'0 0.4
2015-May-23 18:32N 41°25' E 029°05'0 0.2
2015-May-23 17:22N 41°25' E 029°05'6 2.0
2015-May-23 14:23N 41°21' E 029°11'1 0.7
2015-May-23 13:32N 41°22' E 029°10'1 0.7
2015-May-23 11:32N 41°22' E 029°09'1 0.8
2015-May-23 10:34N 41°23' E 029°08'1 0.7
2015-May-23 09:31N 41°23' E 029°07'32011.0
2015-May-22 04:27N 46°33' E 030°58'1 0.0
2015-May-20 06:12N 46°32' E 030°59'0 0.0
2015-May-20 04:33N 46°32' E 030°59'0 0.0
2015-May-20 03:33N 46°32' E 030°59'0 0.0
2015-May-20 02:33N 46°32' E 030°59'0 0.0
2015-May-20 01:30N 46°32' E 030°59'0 0.0
2015-May-20 00:33N 46°32' E 030°59'0 0.0
2015-May-19 23:33N 46°32' E 030°59'0 0.0
2015-May-19 22:24N 46°32' E 030°59'0 0.0
2015-May-19 21:30N 46°32' E 030°59'0 0.0
2015-May-19 20:30N 46°32' E 030°59'0 0.0
2015-May-19 19:21N 46°32' E 030°59'0 0.0
2015-May-19 18:27N 46°32' E 030°59'0 0.0
2015-May-19 17:33N 46°32' E 030°59'0 0.0
2015-May-19 16:15N 46°32' E 030°59'2 2.8
2015-May-19 15:33N 46°30' E 030°57'1614.4
2015-May-19 14:26N 46°14' E 031°01'1314.8
2015-May-19 13:32N 46°02' E 031°09'1616.2
2015-May-19 12:33N 45°48' E 031°01'25715.9
2015-May-18 20:25N 41°41' E 029°21'2016.2
2015-May-18 19:11N 41°22' E 029°14'  

Dump ship's entire track history